Time;durP1;ratioP1;P1;durP2;ratioP2;P2;SDS_P1;SDS_P2;PMS_P1;PMS_P2;Temp;Humidity;BMP_temperature;BMP_pressure;BME280_temperature;BME280_humidity;BME280_pressure;Samples;Min_cycle;Max_cycle;Signal;HPM_P1;HPM_P2
2021/12/02 00:01:41;;;;;;;0.87;0.87;;;6.30;99.90;;;6.65;85.79;98967.47;5049950;28;20638;-64
2021/12/02 00:04:08;;;;;;;0.80;0.80;;;6.40;99.90;;;6.65;84.85;98966.63;5050174;28;20618;-63
2021/12/02 00:06:36;;;;;;;1.10;1.10;;;6.40;99.90;;;6.59;85.71;98964.56;5050131;28;20614;-63
2021/12/02 00:09:04;;;;;;;0.80;0.80;;;6.30;99.90;;;6.56;85.61;98970.00;5051380;28;20706;-62
2021/12/02 00:11:31;;;;;;;1.17;0.77;;;6.30;99.90;;;6.53;85.83;98957.28;5048461;28;21237;-64
2021/12/02 00:14:01;;;;;;;1.20;1.20;;;6.30;99.90;;;6.52;86.27;98955.63;5051079;28;20626;-65
2021/12/02 00:22:03;;;;;;;0.73;0.73;;;6.20;99.90;;;6.45;86.16;98950.16;5031499;28;21164;-65
2021/12/02 00:24:36;;;;;;;1.20;0.70;;;6.20;99.90;;;6.50;86.85;98949.75;5029858;28;20617;-64
2021/12/02 00:27:08;;;;;;;0.67;0.67;;;6.30;99.90;;;6.52;86.85;98950.44;5031184;28;20667;-64
2021/12/02 00:29:37;;;;;;;1.80;1.07;;;6.30;99.90;;;6.45;86.88;98938.97;5029676;28;20670;-64
2021/12/02 00:32:07;;;;;;;0.90;0.70;;;6.20;99.90;;;6.45;86.85;98946.72;5031737;28;20644;-63
2021/12/02 00:34:43;;;;;;;0.70;0.70;;;6.20;99.90;;;6.43;87.47;98946.03;5048539;28;20643;-64
2021/12/02 00:37:11;;;;;;;0.73;0.73;;;6.30;99.90;;;6.44;87.03;98952.84;5045116;28;20652;-64
2021/12/02 00:39:39;;;;;;;2.90;0.90;;;6.20;99.90;;;6.42;86.88;98954.75;5041119;28;20767;-64
2021/12/02 00:42:08;;;;;;;1.53;1.20;;;6.30;99.90;;;6.36;86.70;98956.06;5046330;28;20693;-64
2021/12/02 00:44:37;;;;;;;1.10;1.00;;;6.20;99.90;;;6.34;87.06;98965.75;5048292;28;20641;-63
2021/12/02 00:47:05;;;;;;;0.93;0.90;;;6.20;99.90;;;6.33;87.70;98963.25;5049283;28;20651;-66
2021/12/02 00:49:32;;;;;;;1.00;1.00;;;6.10;99.90;;;6.30;87.45;98966.09;5048341;28;20707;-65
2021/12/02 00:52:01;;;;;;;8.40;0.80;;;6.10;99.90;;;6.28;87.41;98964.44;5048469;28;20694;-64
2021/12/02 00:54:30;;;;;;;1.20;1.13;;;6.10;99.90;;;6.36;87.17;98975.97;5035839;28;20665;-64
2021/12/02 00:56:57;;;;;;;2.70;1.03;;;6.20;99.90;;;6.41;87.43;98979.03;5029582;28;20624;-64
2021/12/02 00:59:29;;;;;;;0.40;0.40;;;6.30;99.90;;;6.43;87.49;98977.94;5033177;28;20738;-63
2021/12/02 01:01:57;;;;;;;0.90;0.90;;;6.30;99.90;;;6.47;87.40;98973.34;5050117;28;20600;-62
2021/12/02 01:04:26;;;;;;;1.20;1.10;;;6.30;99.90;;;6.49;87.41;98976.63;5049237;28;20639;-64
2021/12/02 01:06:53;;;;;;;1.20;1.10;;;6.30;99.90;;;6.54;87.10;98974.50;5048484;28;20746;-64
2021/12/02 01:09:20;;;;;;;0.57;0.57;;;6.40;99.90;;;6.54;86.89;98971.91;5050802;28;20620;-63
2021/12/02 01:11:47;;;;;;;0.70;0.70;;;6.30;99.90;;;6.52;87.49;98974.59;5050196;28;20619;-65
2021/12/02 01:14:15;;;;;;;1.07;1.07;;;6.40;99.90;;;6.48;87.41;98973.22;5048256;28;20671;-64
2021/12/02 01:16:43;;;;;;;0.97;0.70;;;6.30;99.90;;;6.50;88.36;98980.84;5047434;28;20727;-64
2021/12/02 01:19:10;;;;;;;0.70;0.70;;;6.30;99.90;;;6.53;88.31;98980.59;5049317;28;20686;-65
2021/12/02 01:21:42;;;;;;;0.83;0.70;;;6.30;99.90;;;6.55;87.71;98976.94;5049331;28;20627;-65
2021/12/02 01:24:13;;;;;;;1.00;1.00;;;6.40;99.90;;;6.60;87.95;98979.16;5051989;28;20607;-64
2021/12/02 01:26:47;;;;;;;0.80;0.80;;;6.40;99.90;;;6.63;87.27;98990.09;5053328;28;20666;-65
2021/12/02 01:29:15;;;;;;;0.90;0.90;;;6.50;99.90;;;6.70;87.14;98987.81;5052295;28;20660;-62
2021/12/02 01:31:42;;;;;;;0.80;0.80;;;6.60;99.90;;;6.73;87.74;98988.38;5053314;28;20637;-63
2021/12/02 01:34:09;;;;;;;2.43;0.87;;;6.60;99.90;;;6.77;86.75;98991.56;5052882;28;20730;-64
2021/12/02 01:36:39;;;;;;;0.80;0.80;;;6.60;99.90;;;6.78;86.49;98983.66;5052920;28;20718;-63
2021/12/02 01:39:08;;;;;;;0.80;0.80;;;6.70;99.90;;;6.85;85.87;98989.16;5049231;28;20717;-63
2021/12/02 01:41:52;;;;;;;0.77;0.77;;;6.70;99.90;;;6.89;85.11;98985.38;5052133;28;21049;-64
2021/12/02 01:44:21;;;;;;;1.80;0.90;;;6.80;99.90;;;6.92;85.39;98985.13;5052035;28;20726;-64
2021/12/02 01:46:53;;;;;;;1.00;1.00;;;6.80;99.90;;;6.96;85.25;98983.91;5052408;28;20622;-64
2021/12/02 01:49:22;;;;;;;1.00;0.90;;;6.80;99.90;;;6.87;85.30;98988.09;5050828;28;21069;-65
2021/12/02 01:51:54;;;;;;;2.00;0.77;;;6.80;99.90;;;6.91;84.47;98986.06;5052268;28;20618;-62
2021/12/02 01:54:27;;;;;;;0.77;0.60;;;6.70;99.90;;;6.91;84.89;98981.69;5051576;28;20670;-62
2021/12/02 01:57:04;;;;;;;0.80;0.80;;;6.70;99.90;;;6.86;85.78;98983.84;5052937;28;20635;-64
2021/12/02 01:59:36;;;;;;;0.87;0.87;;;6.70;99.90;;;6.85;84.82;98989.16;5051204;28;20674;-63
2021/12/02 02:02:09;;;;;;;1.50;0.50;;;6.60;99.90;;;6.78;85.36;98988.03;5042369;28;20729;-63
2021/12/02 02:04:38;;;;;;;1.17;0.80;;;6.60;99.90;;;6.78;85.72;98993.19;5050864;28;21209;-63
2021/12/02 02:07:14;;;;;;;0.70;0.70;;;6.50;99.90;;;6.71;85.53;98987.69;5052281;28;20656;-62
2021/12/02 02:09:41;;;;;;;0.70;0.70;;;6.50;99.90;;;6.70;86.14;98982.66;5053875;28;20705;-62
2021/12/02 02:12:12;;;;;;;0.60;0.53;;;6.50;99.90;;;6.67;86.43;98985.47;5052893;28;20662;-64
2021/12/02 02:14:41;;;;;;;0.60;0.60;;;6.40;99.90;;;6.71;86.04;98981.69;5052443;28;20669;-64
2021/12/02 02:17:17;;;;;;;0.80;0.80;;;6.50;99.90;;;6.72;86.02;98976.41;5052794;28;20682;-63
2021/12/02 02:19:44;;;;;;;0.67;0.67;;;6.50;99.90;;;6.73;86.23;98974.63;5051801;28;21229;-63
2021/12/02 02:22:12;;;;;;;0.57;0.57;;;6.60;99.90;;;6.74;85.71;98978.84;5053144;28;20719;-63
2021/12/02 02:24:39;;;;;;;0.90;0.90;;;6.60;99.90;;;6.73;86.14;98974.63;5050335;28;20980;-64
2021/12/02 02:27:06;;;;;;;0.50;0.50;;;6.60;99.90;;;6.69;86.07;98973.22;5052098;28;20731;-65
2021/12/02 02:29:33;;;;;;;0.73;0.73;;;6.50;99.90;;;6.68;85.91;98977.59;5051937;28;20654;-63
2021/12/02 02:32:00;;;;;;;0.60;0.60;;;6.50;99.90;;;6.65;86.42;98971.81;5052960;28;20663;-64
2021/12/02 02:34:27;;;;;;;0.90;0.90;;;6.40;99.90;;;6.62;86.39;98977.28;5050987;28;20622;-65
2021/12/02 02:36:56;;;;;;;0.60;0.60;;;6.40;99.90;;;6.58;85.93;98973.28;5044013;28;20693;-63
2021/12/02 02:39:25;;;;;;;0.70;0.70;;;6.40;99.90;;;6.57;86.82;98977.66;5051757;28;20665;-65
2021/12/02 02:42:00;;;;;;;0.70;0.70;;;6.30;99.90;;;6.53;86.18;98985.78;5040659;28;20636;-64
2021/12/02 02:44:29;;;;;;;0.60;0.60;;;6.30;99.90;;;6.53;86.19;98983.19;5032673;28;20712;-63
2021/12/02 02:46:57;;;;;;;1.63;0.73;;;6.30;99.90;;;6.44;86.27;98979.59;5030387;28;20644;-65
2021/12/02 02:49:24;;;;;;;2.03;0.97;;;6.20;99.90;;;6.43;86.79;98982.31;5032995;28;21167;-63
2021/12/02 02:51:51;;;;;;;1.10;1.10;;;6.20;99.90;;;6.46;86.45;98979.44;5052063;28;20703;-64
2021/12/02 02:54:19;;;;;;;1.00;1.00;;;6.20;99.90;;;6.46;86.07;98984.63;5051001;28;20623;-63
2021/12/02 02:56:58;;;;;;;1.10;1.07;;;6.20;99.90;;;6.47;86.46;98983.69;5051099;28;20734;-63
2021/12/02 03:02:05;;;;;;;0.77;0.77;;;6.30;99.90;;;6.57;86.01;98979.41;5050238;28;20664;-63
2021/12/02 03:07:12;;;;;;;0.70;0.70;;;6.40;99.90;;;6.59;86.16;98960.19;5051441;28;21294;-62
2021/12/02 03:16:36;;;;;;;1.50;1.10;;;6.40;99.90;;;6.61;85.69;98965.25;5051512;28;20620;-63
2021/12/02 03:17:41;;;;;;;1.03;1.00;;;6.40;99.90;;;6.53;85.19;98946.94;5051414;28;20643;-63
2021/12/02 03:20:09;;;;;;;1.10;0.70;;;6.40;99.90;;;6.54;85.29;98948.59;5051715;28;21050;-62
2021/12/02 03:22:36;;;;;;;0.57;0.50;;;6.30;99.90;;;6.49;86.14;98945.53;5050929;28;20619;-64
2021/12/02 03:25:06;;;;;;;0.53;0.53;;;6.30;99.90;;;6.42;85.25;98949.56;5050960;28;20613;-64
2021/12/02 03:27:34;;;;;;;0.87;0.80;;;6.30;99.90;;;6.39;85.65;98947.25;5031356;28;20652;-65
2021/12/02 03:30:06;;;;;;;0.90;0.70;;;6.20;99.90;;;6.32;86.59;98946.91;5031570;28;20616;-64
2021/12/02 03:32:35;;;;;;;0.30;0.30;;;6.10;99.90;;;6.31;86.59;98947.00;5032033;28;20619;-63
2021/12/02 03:35:02;;;;;;;0.63;0.63;;;6.10;99.90;;;6.26;86.76;98940.44;5037015;28;20641;-64
2021/12/02 03:37:29;;;;;;;1.17;1.17;;;6.00;99.90;;;6.26;86.99;98945.63;5049382;28;20670;-62
2021/12/02 03:39:56;;;;;;;1.10;1.00;;;6.10;99.90;;;6.37;87.22;98951.72;5050489;28;20304;-63
2021/12/02 03:42:23;;;;;;;1.70;0.63;;;6.20;99.90;;;6.43;86.23;98935.69;5048939;28;20735;-65
2021/12/02 03:44:50;;;;;;;0.60;0.60;;;6.30;99.90;;;6.48;86.23;98949.06;5036047;28;20918;-63
2021/12/02 03:47:17;;;;;;;1.00;1.00;;;6.40;99.90;;;6.54;86.18;98944.19;5049936;28;21038;-65
2021/12/02 03:49:44;;;;;;;4.77;0.90;;;6.40;99.90;;;6.59;85.83;98941.25;5050538;28;20603;-65
2021/12/02 03:52:11;;;;;;;0.77;0.77;;;6.40;99.90;;;6.63;85.23;98938.28;5051228;28;20734;-64
2021/12/02 03:54:38;;;;;;;1.37;0.83;;;6.50;99.90;;;6.73;84.86;98926.19;5050608;28;20619;-63
2021/12/02 03:57:05;;;;;;;5.90;0.80;;;6.60;99.90;;;6.78;84.38;98923.22;5049153;28;20766;-64
2021/12/02 03:59:32;;;;;;;1.00;1.00;;;6.70;99.90;;;6.85;84.17;98932.97;5049065;28;20658;-61
2021/12/02 04:02:00;;;;;;;2.57;1.17;;;6.70;99.90;;;6.88;83.67;98945.66;5050037;28;20640;-64
2021/12/02 04:04:28;;;;;;;1.37;0.70;;;6.70;99.90;;;6.89;84.33;98944.72;5047279;28;21080;-64
2021/12/02 04:06:55;;;;;;;0.80;0.80;;;6.70;99.90;;;6.94;83.04;98942.53;5043472;28;20734;-64
2021/12/02 04:09:24;;;;;;;1.00;0.70;;;6.80;99.90;;;6.94;84.19;98952.91;5050072;28;20631;-63
2021/12/02 04:11:59;;;;;;;3.40;0.80;;;6.70;99.90;;;6.92;83.49;98954.00;5042549;28;20663;-63
2021/12/02 04:14:46;;;;;;;0.70;0.70;;;6.70;99.90;;;6.91;84.05;98950.59;5034851;28;20994;-63
2021/12/02 04:17:14;;;;;;;0.63;0.63;;;6.70;99.90;;;6.94;83.58;98946.94;5051263;28;20644;-63
2021/12/02 04:19:41;;;;;;;0.80;0.80;;;6.80;99.90;;;6.98;84.27;98948.31;5050664;28;20754;-63
2021/12/02 04:22:08;;;;;;;0.60;0.60;;;6.80;99.90;;;7.02;83.85;98952.28;5050827;28;21272;-63
2021/12/02 04:24:35;;;;;;;1.20;1.10;;;6.80;99.90;;;7.04;83.98;98952.97;5050125;28;20726;-63
2021/12/02 04:27:02;;;;;;;0.63;0.63;;;6.90;99.90;;;7.09;83.79;98945.66;5049771;28;20731;-63
2021/12/02 04:29:30;;;;;;;0.87;0.80;;;7.00;99.90;;;7.17;83.49;98953.59;5049505;28;20643;-63
2021/12/02 04:31:57;;;;;;;1.17;0.80;;;7.00;99.90;;;7.21;82.25;98954.16;5050978;28;20615;-63
2021/12/02 04:34:24;;;;;;;3.03;1.07;;;7.10;99.90;;;7.22;82.18;98951.41;5049404;28;20726;-63
2021/12/02 04:36:51;;;;;;;3.20;0.90;;;7.10;99.90;;;7.28;82.86;98948.34;5049812;28;20623;-63
2021/12/02 04:39:18;;;;;;;1.57;0.67;;;7.10;99.90;;;7.30;82.98;98950.78;5029831;28;20758;-64
2021/12/02 04:41:45;;;;;;;1.40;1.30;;;7.10;99.90;;;7.30;82.02;98958.56;5049936;28;20652;-63
2021/12/02 04:44:14;;;;;;;2.00;1.00;;;7.10;99.90;;;7.19;82.64;98959.47;5048484;28;20631;-63
2021/12/02 04:46:41;;;;;;;0.63;0.60;;;7.00;99.90;;;7.16;82.79;98956.31;5048613;28;20715;-63
2021/12/02 04:49:08;;;;;;;0.57;0.57;;;7.00;99.90;;;7.12;83.07;98955.75;5049344;28;20708;-63
2021/12/02 04:51:35;;;;;;;0.93;0.80;;;7.00;99.90;;;7.06;84.35;98958.88;5050825;28;20624;-63
2021/12/02 04:54:02;;;;;;;1.27;0.50;;;6.90;99.90;;;7.02;83.63;98966.09;5049996;28;20619;-63
2021/12/02 04:56:29;;;;;;;1.50;0.83;;;6.80;99.90;;;6.96;84.60;98974.34;5049163;28;21265;-64
2021/12/02 04:58:56;;;;;;;0.50;0.50;;;6.80;99.90;;;6.95;85.32;98969.31;5054463;28;20659;-63
2021/12/02 05:01:23;;;;;;;0.70;0.60;;;6.80;99.90;;;6.92;84.99;98974.75;5052894;28;21298;-63
2021/12/02 05:03:51;;;;;;;1.60;0.80;;;6.80;99.90;;;6.79;86.46;98966.34;5052695;28;20619;-63
2021/12/02 05:06:18;;;;;;;0.50;0.50;;;6.60;99.90;;;6.77;86.64;98965.66;5045209;28;21205;-64
2021/12/02 05:08:45;;;;;;;0.50;0.50;;;6.60;99.90;;;6.74;86.79;98963.31;5049311;28;20747;-63
2021/12/02 05:11:12;;;;;;;0.40;0.40;;;6.60;99.90;;;6.75;86.52;98967.56;5049864;28;20640;-63
2021/12/02 05:13:39;;;;;;;1.47;0.60;;;6.60;99.90;;;6.79;85.91;98968.94;5033441;28;20640;-63
2021/12/02 05:16:06;;;;;;;0.70;0.70;;;6.60;99.90;;;6.80;86.02;98976.59;5045139;28;20714;-64
2021/12/02 05:18:33;;;;;;;0.67;0.67;;;6.70;99.90;;;6.83;86.34;98973.75;5052519;28;20703;-63
2021/12/02 05:21:00;;;;;;;0.60;0.60;;;6.70;99.90;;;6.78;86.12;98975.06;5053564;28;20611;-64
2021/12/02 05:23:27;;;;;;;0.77;0.70;;;6.60;99.90;;;6.80;86.93;98980.94;5052620;28;20639;-64
2021/12/02 05:25:54;;;;;;;0.70;0.70;;;6.70;99.90;;;6.77;86.60;98984.59;5052800;28;20726;-63
2021/12/02 05:28:21;;;;;;;0.50;0.50;;;6.60;99.90;;;6.74;87.38;98981.44;5048622;28;20655;-63
2021/12/02 05:30:48;;;;;;;0.53;0.53;;;6.60;99.90;;;6.74;86.97;98995.22;5050843;28;20627;-63
2021/12/02 05:33:16;;;;;;;0.80;0.50;;;6.60;99.90;;;6.66;86.26;98983.84;5052879;28;21186;-63
2021/12/02 05:35:44;;;;;;;0.73;0.67;;;6.50;99.90;;;6.61;86.95;98985.97;5051923;28;20628;-61
2021/12/02 05:38:12;;;;;;;1.77;0.90;;;6.40;99.90;;;6.62;88.13;98980.66;5051366;28;20691;-63
2021/12/02 05:40:39;;;;;;;0.60;0.60;;;6.50;99.90;;;6.48;89.92;98985.31;5049077;28;21118;-63
2021/12/02 05:43:06;;;;;;;0.60;0.60;;;6.30;99.90;;;6.41;90.10;98989.38;5050125;28;20670;-63
2021/12/02 05:45:33;;;;;;;0.50;0.40;;;6.30;99.90;;;6.39;89.79;98991.28;5050623;28;21005;-64
2021/12/02 05:48:00;;;;;;;0.50;0.50;;;6.20;99.90;;;6.36;89.83;98981.16;5053804;28;20646;-63
2021/12/02 05:50:27;;;;;;;0.50;0.50;;;6.20;99.90;;;6.33;89.55;98986.56;5052555;28;20622;-63
2021/12/02 05:52:54;;;;;;;0.30;0.30;;;6.20;99.90;;;6.26;89.23;98984.47;5057124;28;20806;-64
2021/12/02 05:55:22;;;;;;;0.50;0.50;;;6.10;99.90;;;6.23;88.69;98982.16;5052851;28;21192;-63
2021/12/02 05:57:49;;;;;;;0.40;0.40;;;6.10;99.90;;;6.08;89.25;98985.94;5052004;28;20757;-63
2021/12/02 06:00:16;;;;;;;1.27;0.43;;;6.00;99.90;;;5.98;89.10;98982.44;5052330;28;21306;-63
2021/12/02 06:02:44;;;;;;;1.00;0.50;;;5.80;99.90;;;5.93;89.89;98976.81;5052829;28;21047;-63
2021/12/02 06:05:18;;;;;;;1.03;0.60;;;5.80;99.90;;;5.96;90.12;98979.13;5050525;28;20619;-63
2021/12/02 06:07:53;;;;;;;0.63;0.53;;;5.90;99.90;;;5.96;90.50;98979.13;5039590;28;20709;-63
2021/12/02 06:10:20;;;;;;;0.40;0.40;;;5.80;99.90;;;5.90;90.62;98979.63;5031810;28;20747;-64
2021/12/02 06:12:47;;;;;;;0.33;0.33;;;5.80;99.90;;;5.90;90.99;98979.63;5048895;28;20351;-64
2021/12/02 06:15:15;;;;;;;0.40;0.40;;;5.70;99.90;;;5.89;90.51;98975.41;5053471;28;20638;-63
2021/12/02 06:17:43;;;;;;;1.00;0.50;;;5.80;99.90;;;5.90;90.27;98974.44;5053261;28;20798;-63
2021/12/02 06:20:13;;;;;;;2.10;0.60;;;5.80;99.90;;;5.88;90.63;98978.91;5052209;28;20225;-63
2021/12/02 06:22:40;;;;;;;0.30;0.30;;;5.70;99.90;;;5.91;90.58;98976.09;5052022;28;20707;-63
2021/12/02 06:27:47;;;;;;;4.67;0.87;;;5.80;99.90;;;5.95;91.35;98971.50;5051904;28;20690;-62
2021/12/02 06:30:19;;;;;;;0.50;0.50;;;5.80;99.90;;;5.95;91.39;98979.25;5052424;28;20616;-65
2021/12/02 06:32:46;;;;;;;2.10;0.50;;;5.80;99.90;;;5.94;91.04;98980.22;5051578;28;20681;-62
2021/12/02 06:35:13;;;;;;;1.27;0.50;;;5.80;99.90;;;5.96;91.75;98980.94;5051372;28;21191;-62
2021/12/02 06:37:41;;;;;;;0.50;0.50;;;5.80;99.90;;;5.98;91.26;98985.03;5050677;28;20667;-63
2021/12/02 06:40:09;;;;;;;0.40;0.40;;;5.90;99.90;;;6.00;91.53;98990.09;5047004;28;20755;-61
2021/12/02 06:42:36;;;;;;;0.33;0.33;;;5.90;99.90;;;6.02;90.79;98989.03;5039498;28;20634;-62
2021/12/02 06:45:04;;;;;;;1.33;0.40;;;5.90;99.90;;;6.07;90.68;98991.22;5050316;28;21092;-64
2021/12/02 06:47:35;;;;;;;0.60;0.43;;;5.90;99.90;;;6.08;90.68;98985.94;5050856;28;20731;-64
2021/12/02 06:50:05;;;;;;;2.40;0.40;;;6.00;99.90;;;6.10;90.25;98986.66;5030374;28;20669;-63
2021/12/02 06:52:32;;;;;;;0.77;0.50;;;6.00;99.90;;;6.14;90.31;98990.63;5049955;28;21091;-63
2021/12/02 06:54:59;;;;;;;2.10;0.50;;;6.00;99.90;;;6.13;90.20;98996.75;5050813;28;20670;-64
2021/12/02 06:57:27;;;;;;;0.87;0.40;;;6.00;99.90;;;6.13;90.17;98996.75;5051776;28;20667;-64
2021/12/02 06:59:54;;;;;;;1.47;0.73;;;6.00;99.90;;;6.13;90.33;98996.75;5051258;28;20663;-64
2021/12/02 07:02:20;;;;;;;1.10;0.80;;;6.00;99.90;;;6.14;90.79;98995.00;5041469;28;20622;-64
2021/12/02 07:04:50;;;;;;;1.33;0.50;;;6.00;99.90;;;6.13;91.33;98996.75;5048803;28;20628;-65
2021/12/02 07:07:17;;;;;;;1.27;0.73;;;6.00;99.90;;;6.14;90.86;98997.56;5050268;28;20705;-63
2021/12/02 07:09:44;;;;;;;0.77;0.53;;;6.00;99.90;;;6.15;91.66;98992.25;5050037;28;20702;-63
2021/12/02 07:12:12;;;;;;;0.50;0.50;;;6.00;99.90;;;6.16;91.96;99000.88;5049709;28;21214;-63
2021/12/02 07:14:39;;;;;;;2.40;0.80;;;6.00;99.90;;;6.12;91.83;99013.25;5050630;28;20624;-63
2021/12/02 07:17:07;;;;;;;1.17;0.60;;;6.00;99.90;;;6.11;91.66;99008.19;5050715;28;20762;-62
2021/12/02 07:19:38;;;;;;;0.40;0.40;;;6.00;99.90;;;6.10;91.86;99011.72;5050428;28;20664;-64
2021/12/02 07:22:05;;;;;;;0.40;0.40;;;6.00;99.90;;;6.09;90.84;99008.28;5048340;28;20197;-63
2021/12/02 07:24:32;;;;;;;2.77;0.50;;;6.00;99.90;;;6.04;91.11;99009.63;5050211;28;20750;-63
2021/12/02 07:27:07;;;;;;;0.50;0.50;;;5.90;99.90;;;6.01;91.49;99018.44;5050969;28;20623;-63
2021/12/02 07:29:34;;;;;;;0.40;0.40;;;5.80;99.90;;;5.98;91.38;99016.09;5050013;28;20631;-63
2021/12/02 07:32:03;;;;;;;3.40;0.50;;;5.80;99.90;;;5.99;91.88;99014.31;5049310;28;20639;-63
2021/12/02 07:34:34;;;;;;;0.47;0.47;;;5.80;99.90;;;5.98;92.41;99016.09;5050736;28;20631;-64
2021/12/02 07:37:02;;;;;;;0.47;0.47;;;5.90;99.90;;;5.98;91.68;99023.03;5050815;28;20754;-64
2021/12/02 07:39:29;;;;;;;0.40;0.40;;;5.80;99.90;;;6.00;91.79;99034.94;5042014;28;20692;-63
2021/12/02 07:41:58;;;;;;;0.40;0.40;;;5.90;99.90;;;6.02;91.49;99032.22;5043505;28;20636;-63
2021/12/02 07:44:25;;;;;;;0.47;0.47;;;5.90;99.90;;;6.02;91.39;99030.44;5039143;28;20770;-63
2021/12/02 07:46:52;;;;;;;0.50;0.50;;;5.90;99.90;;;6.04;91.91;99041.50;5049601;28;20735;-63
2021/12/02 07:49:19;;;;;;;1.60;0.67;;;5.90;99.90;;;6.06;91.69;99043.97;5048309;28;20660;-63
2021/12/02 07:51:50;;;;;;;0.77;0.50;;;6.00;99.90;;;6.08;91.74;99042.09;5046960;28;20644;-63
2021/12/02 07:54:18;;;;;;;0.63;0.63;;;6.00;99.90;;;6.07;91.51;99050.78;5033488;28;20658;-63
2021/12/02 07:56:48;;;;;;;3.03;0.70;;;6.00;99.90;;;6.06;92.09;99054.31;5049993;28;20738;-63
2021/12/02 07:59:19;;;;;;;0.60;0.60;;;5.90;99.90;;;6.11;92.09;99059.97;5050971;28;20631;-63
2021/12/02 08:01:48;;;;;;;0.80;0.80;;;6.00;99.90;;;6.10;92.12;99068.69;5049583;28;20703;-63
2021/12/02 08:04:15;;;;;;;0.63;0.63;;;6.00;99.90;;;6.10;92.45;99064.31;5050300;28;20685;-63
2021/12/02 08:06:42;;;;;;;1.07;0.97;;;6.00;99.90;;;6.13;92.80;99071.03;5046543;28;20638;-62
2021/12/02 08:09:13;;;;;;;0.80;0.80;;;6.00;99.90;;;6.15;92.40;99067.34;5049255;28;20641;-63
2021/12/02 08:11:40;;;;;;;0.97;0.87;;;6.10;99.90;;;6.16;93.19;99078.56;5049023;28;21253;-63
2021/12/02 08:14:12;;;;;;;1.70;1.20;;;6.00;99.90;;;6.12;93.31;99079.72;5049100;28;20658;-63
2021/12/02 08:16:39;;;;;;;1.83;1.10;;;6.00;99.90;;;6.11;93.59;99091.06;5050135;28;20654;-62
2021/12/02 08:19:07;;;;;;;1.10;0.87;;;6.00;99.90;;;6.04;94.08;99088.13;5041397;28;21258;-63
2021/12/02 08:21:34;;;;;;;1.33;1.17;;;5.90;99.90;;;6.01;94.51;99077.16;5049168;28;20716;-63
2021/12/02 08:24:01;;;;;;;1.80;0.80;;;5.90;99.90;;;6.06;93.86;99081.03;5049447;28;20715;-63
2021/12/02 08:26:30;;;;;;;0.77;0.77;;;5.90;99.90;;;6.13;94.12;99087.38;5039813;28;20640;-62
2021/12/02 08:28:58;;;;;;;1.00;1.00;;;6.00;99.90;;;6.15;93.92;99088.06;5031671;28;20660;-63
2021/12/02 08:31:25;;;;;;;3.03;1.07;;;6.10;99.90;;;6.11;93.86;99089.25;5049744;28;20722;-63
2021/12/02 08:33:53;;;;;;;0.50;0.50;;;6.00;99.90;;;6.08;93.71;99096.44;5049621;28;20615;-62
2021/12/02 08:36:24;;;;;;;1.60;1.00;;;6.00;99.90;;;6.03;94.23;99091.63;5047584;28;20212;-63
2021/12/02 08:38:52;;;;;;;0.60;0.60;;;5.90;99.90;;;6.11;93.84;99088.47;5035707;28;21280;-62
2021/12/02 08:41:20;;;;;;;0.73;0.73;;;6.00;99.90;;;6.06;93.02;99091.41;5049943;28;20669;-62
2021/12/02 08:43:47;;;;;;;0.70;0.70;;;5.90;99.90;;;6.09;92.70;99092.94;5049488;28;20995;-62
2021/12/02 08:46:19;;;;;;;0.47;0.47;;;5.90;99.90;;;6.17;92.51;99096.56;5047672;28;20723;-63
2021/12/02 08:48:48;;;;;;;0.37;0.37;;;6.00;99.90;;;6.24;90.84;99097.72;5046319;28;21218;-63
2021/12/02 08:51:15;;;;;;;0.73;0.50;;;6.10;99.90;;;6.32;90.71;99109.25;5049029;28;20639;-63
2021/12/02 08:53:42;;;;;;;0.53;0.53;;;6.20;99.90;;;6.32;89.67;99112.69;5048654;28;20631;-62
2021/12/02 08:56:09;;;;;;;0.50;0.50;;;6.20;99.90;;;6.33;89.50;99127.25;5047939;28;20637;-62
2021/12/02 08:58:37;;;;;;;0.30;0.30;;;6.20;99.90;;;6.26;89.70;99116.56;5047469;28;20662;-63
2021/12/02 09:01:04;;;;;;;0.40;0.40;;;6.10;99.90;;;6.31;88.18;99130.91;5048616;28;20750;-62
2021/12/02 09:03:37;;;;;;;0.50;0.50;;;6.10;99.90;;;6.36;88.00;99114.09;5049728;28;20718;-62
2021/12/02 09:06:10;;;;;;;0.40;0.40;;;6.20;99.90;;;6.30;86.98;99121.50;5049003;28;20205;-63
2021/12/02 09:08:40;;;;;;;1.50;0.60;;;6.10;99.90;;;6.36;86.12;99128.78;5049342;28;20721;-64
2021/12/02 09:11:10;;;;;;;1.00;0.40;;;6.20;99.90;;;6.22;86.63;99130.69;5047463;28;20738;-64
2021/12/02 09:13:37;;;;;;;0.30;0.30;;;6.10;99.90;;;6.32;85.83;99129.97;5047526;28;20726;-63
2021/12/02 09:16:04;;;;;;;0.93;0.60;;;6.20;99.90;;;6.28;84.96;99140.56;5048625;28;20655;-64
2021/12/02 09:18:31;;;;;;;0.60;0.60;;;6.10;99.90;;;6.28;85.06;99144.13;5049251;28;20663;-63
2021/12/02 09:20:59;;;;;;;0.60;0.60;;;6.10;99.90;;;6.23;85.85;99134.94;5047464;28;20674;-64
2021/12/02 09:23:27;;;;;;;0.50;0.50;;;6.10;99.90;;;6.31;85.23;99138.69;5048839;28;20651;-63
2021/12/02 09:25:54;;;;;;;0.50;0.50;;;6.20;99.90;;;6.35;84.75;99140.09;5046270;28;21274;-64
2021/12/02 09:28:21;;;;;;;0.97;0.60;;;6.20;99.90;;;6.41;85.00;99147.41;5049300;28;20633;-63
2021/12/02 09:30:48;;;;;;;0.50;0.50;;;6.30;99.90;;;6.43;84.24;99143.72;5039942;28;20636;-63
2021/12/02 09:33:15;;;;;;;0.63;0.63;;;6.30;99.90;;;6.42;84.72;99146.44;5049236;28;20599;-63
2021/12/02 09:35:42;;;;;;;1.23;0.80;;;6.30;99.90;;;6.52;85.12;99152.53;5048842;28;20631;-63
2021/12/02 09:38:10;;;;;;;0.60;0.60;;;6.40;99.90;;;6.60;84.51;99145.81;5049668;28;20649;-63
2021/12/02 09:40:40;;;;;;;0.80;0.80;;;6.50;99.90;;;6.64;85.06;99147.25;5044859;28;20763;-63
2021/12/02 09:43:11;;;;;;;0.70;0.50;;;6.60;99.90;;;6.71;84.32;99150.16;5034982;28;20616;-62
2021/12/02 09:45:39;;;;;;;0.50;0.50;;;6.60;99.90;;;6.75;83.54;99151.56;5030996;28;20691;-62
2021/12/02 09:48:09;;;;;;;2.20;0.50;;;6.60;99.90;;;6.77;84.33;99153.06;5047744;28;20659;-63
2021/12/02 09:50:48;;;;;;;0.57;0.57;;;6.70;99.90;;;6.79;83.32;99152.97;5032954;28;20707;-62
2021/12/02 09:53:19;;;;;;;0.50;0.50;;;6.70;99.90;;;6.81;83.70;99148.50;5034297;28;20647;-63
2021/12/02 09:56:03;;;;;;;0.50;0.50;;;6.70;99.90;;;6.73;84.54;99154.28;5031474;28;20644;-63
2021/12/02 09:58:30;;;;;;;0.63;0.63;;;6.60;99.90;;;6.80;83.64;99152.00;5032607;28;20632;-63
2021/12/02 10:01:15;;;;;;;0.60;0.60;;;6.60;99.90;;;6.90;84.30;99143.38;5031300;28;20755;-63
2021/12/02 10:03:46;;;;;;;0.40;0.40;;;6.80;99.90;;;6.99;83.39;99141.81;5033439;28;20633;-63
2021/12/02 10:06:21;;;;;;;0.50;0.50;;;6.90;99.90;;;7.07;82.76;99144.59;5048020;28;21195;-62
2021/12/02 10:12:01;;;;;;;0.80;0.70;;;7.00;99.90;;;7.11;82.73;99137.41;5052356;28;20643;-63
2021/12/02 10:14:37;;;;;;;0.60;0.60;;;7.00;99.90;;;7.16;82.45;99145.63;5051689;28;20730;-63
2021/12/02 10:17:21;;;;;;;0.77;0.77;;;7.10;99.90;;;7.18;83.08;99141.97;5051463;28;21066;-62
2021/12/02 10:20:32;;;;;;;0.60;0.60;;;7.10;99.90;;;7.19;82.00;99141.03;5044870;28;20754;-63
2021/12/02 10:25:49;;;;;;;0.60;0.60;;;7.10;99.90;;;7.24;81.96;99138.88;5051782;28;20678;-62
2021/12/02 10:28:18;;;;;;;0.67;0.60;;;7.10;99.90;;;7.28;81.93;99136.88;5050962;28;20697;-63
2021/12/02 10:30:51;;;;;;;3.23;0.80;;;7.20;99.90;;;7.36;81.87;99139.66;5052176;28;20670;-63
2021/12/02 10:33:38;;;;;;;0.70;0.70;;;7.30;99.90;;;7.44;81.54;99143.25;5052529;28;20730;-62
2021/12/02 10:36:09;;;;;;;0.80;0.80;;;7.40;99.90;;;7.55;81.05;99139.78;5052133;28;20718;-64
2021/12/02 10:38:43;;;;;;;0.83;0.83;;;7.50;99.90;;;7.65;80.87;99141.47;5051199;28;20750;-63
2021/12/02 10:41:21;;;;;;;0.93;0.80;;;7.60;99.90;;;7.72;79.79;99140.03;5052020;28;20690;-62
2021/12/02 10:44:06;;;;;;;2.40;0.73;;;7.70;99.90;;;7.79;79.04;99127.38;5031673;28;21148;-63
2021/12/02 10:46:36;;;;;;;1.47;0.93;;;7.70;99.90;;;7.87;78.54;99131.91;5032741;28;20757;-63
2021/12/02 10:49:06;;;;;;;0.30;0.30;;;7.80;99.90;;;7.96;78.01;99131.13;5038381;28;20639;-63
2021/12/02 10:51:46;;;;;;;0.80;0.80;;;7.90;99.90;;;8.07;78.15;99136.25;5034379;28;20636;-63
2021/12/02 10:54:18;;;;;;;0.63;0.63;;;8.00;99.90;;;8.13;77.22;99122.72;5039467;28;20682;-64
2021/12/02 10:56:53;;;;;;;0.70;0.70;;;8.10;99.90;;;8.19;76.47;99127.38;5031681;28;20704;-64
2021/12/02 10:59:50;;;;;;;0.80;0.80;;;8.20;99.90;;;8.21;75.98;99125.47;5045571;28;21023;-62
2021/12/02 11:02:35;;;;;;;0.70;0.70;;;8.20;99.90;;;8.26;75.15;99131.94;5034271;28;20728;-63
2021/12/02 11:05:36;;;;;;;0.73;0.73;;;8.20;99.90;;;8.33;74.81;99140.03;5031581;28;20608;-63
2021/12/02 11:08:06;;;;;;;0.70;0.70;;;8.30;99.90;;;8.36;74.21;99137.19;5048910;28;20778;-64